Time;durP1;ratioP1;P1;durP2;ratioP2;P2;SDS_P1;SDS_P2;PMS_P1;PMS_P2;Temp;Humidity;BMP_temperature;BMP_pressure;BME280_temperature;BME280_humidity;BME280_pressure;Samples;Min_cycle;Max_cycle;Signal;HPM_P1;HPM_P2
2022/09/02 00:01:38;;;;;;;14.40;8.85;;;;;;;19.79;31.69;96436.69;6317139;28;20470;-62
2022/09/02 00:04:39;;;;;;;12.38;7.90;;;;;;;19.86;31.22;96432.38;6317896;28;20055;-61
2022/09/02 00:07:44;;;;;;;13.73;8.90;;;;;;;19.84;31.45;96429.00;6318746;28;20080;-61
2022/09/02 00:10:45;;;;;;;23.42;14.27;;;;;;;19.74;31.73;96427.38;6319273;28;20036;-61
2022/09/02 00:13:50;;;;;;;13.32;9.40;;;;;;;19.61;31.77;96423.50;6318945;28;20054;-61
2022/09/02 00:16:54;;;;;;;13.00;8.18;;;;;;;19.57;31.91;96431.00;6319174;28;20117;-61
2022/09/02 00:19:58;;;;;;;14.98;9.00;;;;;;;19.55;31.95;96414.31;6318501;28;20059;-61
2022/09/02 00:23:05;;;;;;;15.98;9.13;;;;;;;19.54;32.16;96417.16;6318890;28;20079;-61
2022/09/02 00:26:12;;;;;;;13.25;7.53;;;;;;;19.43;32.46;96413.00;6314245;28;20119;-61
2022/09/02 00:29:14;;;;;;;9.98;7.25;;;;;;;19.22;32.74;96408.13;6300069;28;20078;-60
2022/09/02 00:32:21;;;;;;;12.38;7.43;;;;;;;19.11;33.18;96414.63;6318414;28;20050;-69
2022/09/02 00:35:25;;;;;;;9.38;6.70;;;;;;;19.01;33.84;96411.25;6314949;28;20189;-61
2022/09/02 00:38:32;;;;;;;18.67;11.77;;;;;;;18.97;33.45;96412.59;6318881;28;20051;-60
2022/09/02 00:41:35;;;;;;;10.57;8.15;;;;;;;18.95;33.54;96406.59;6317968;28;20104;-60
2022/09/02 00:44:38;;;;;;;12.13;7.63;;;;;;;18.91;33.97;96405.22;6317038;28;20076;-62
2022/09/02 00:47:40;;;;;;;15.70;8.63;;;;;;;18.91;33.71;96405.22;6311589;28;20055;-61
2022/09/02 00:50:42;;;;;;;12.35;8.15;;;;;;;19.01;33.86;96400.59;6308792;28;20133;-61
2022/09/02 00:53:47;;;;;;;13.75;8.20;;;;;;;18.95;34.34;96404.75;6309660;28;20045;-61
2022/09/02 00:56:51;;;;;;;11.88;7.45;;;;;;;18.86;35.60;96410.22;6313646;28;20044;-61
2022/09/02 01:00:27;;;;;;;12.75;8.25;;;;;;;18.74;36.46;96405.19;6308320;28;20036;-61
2022/09/02 01:03:34;;;;;;;11.45;7.40;;;;;;;18.58;37.29;96418.41;6310633;28;20128;-61
2022/09/02 01:06:38;;;;;;;10.45;7.38;;;;;;;18.47;38.40;96402.72;6320864;28;20044;-61
2022/09/02 01:09:45;;;;;;;14.13;6.95;;;;;;;18.35;38.53;96391.53;6321055;28;20135;-61
2022/09/02 01:12:46;;;;;;;11.38;7.28;;;;;;;18.23;38.98;96396.28;6321800;28;20539;-61
2022/09/02 01:15:57;;;;;;;16.02;7.55;;;;;;;18.17;38.82;96412.88;6314197;28;20063;-60
2022/09/02 01:19:02;;;;;;;12.48;7.57;;;;;;;18.25;38.15;96398.78;6319520;28;20427;-61
2022/09/02 01:22:17;;;;;;;16.38;10.23;;;;;;;18.23;37.82;96406.09;6318932;28;20052;-61
2022/09/02 01:25:26;;;;;;;14.32;8.73;;;;;;;18.09;38.02;96404.88;6319114;28;20383;-60
2022/09/02 01:28:32;;;;;;;12.82;8.02;;;;;;;18.07;36.91;96378.38;6320333;28;20051;-60
2022/09/02 01:31:33;;;;;;;14.20;8.70;;;;;;;18.50;36.23;96399.72;6322914;28;20040;-60
2022/09/02 01:34:35;;;;;;;14.43;9.02;;;;;;;18.71;35.43;96405.50;6319134;28;20062;-61
2022/09/02 01:37:39;;;;;;;16.85;8.48;;;;;;;18.62;36.08;96406.44;6318208;28;20066;-60
2022/09/02 01:40:43;;;;;;;12.63;8.02;;;;;;;18.55;37.06;96406.25;6319083;28;20044;-63
2022/09/02 01:43:45;;;;;;;15.15;8.80;;;;;;;18.52;37.38;96405.75;6315706;28;20419;-66
2022/09/02 01:46:46;;;;;;;14.57;8.52;;;;;;;18.81;35.85;96400.88;6312415;28;20044;-62
2022/09/02 01:49:48;;;;;;;29.60;17.92;;;;;;;18.81;36.10;96408.88;6315895;28;20719;-64
2022/09/02 01:52:50;;;;;;;17.95;10.77;;;;;;;18.63;37.16;96400.97;6313747;28;20121;-65
2022/09/02 01:55:54;;;;;;;14.77;8.68;;;;;;;18.62;36.84;96401.94;6318130;28;20045;-62
2022/09/02 01:58:55;;;;;;;14.07;8.18;;;;;;;18.61;37.63;96388.78;6314163;28;20044;-62
2022/09/02 02:01:59;;;;;;;15.05;8.93;;;;;;;18.69;37.26;96396.81;6316682;28;20044;-62
2022/09/02 02:05:01;;;;;;;13.80;7.55;;;;;;;18.61;38.42;96397.59;6320257;28;20048;-62
2022/09/02 02:08:04;;;;;;;16.73;8.02;;;;;;;18.55;36.94;96400.09;6316748;28;20192;-64
2022/09/02 02:11:06;;;;;;;11.05;6.43;;;;;;;18.58;35.71;96400.59;6318206;28;20127;-62
2022/09/02 02:14:07;;;;;;;10.52;7.63;;;;;;;18.89;34.42;96396.56;6319015;28;20597;-62
2022/09/02 02:17:11;;;;;;;12.93;9.25;;;;;;;19.03;33.92;96396.75;6316811;28;20044;-62
2022/09/02 02:20:20;;;;;;;14.95;10.10;;;;;;;19.03;32.95;96394.09;6316516;28;20051;-63
2022/09/02 02:23:23;;;;;;;18.45;11.68;;;;;;;19.02;32.72;96396.91;6311724;28;20189;-63
2022/09/02 02:26:25;;;;;;;20.60;14.43;;;;;;;19.11;32.10;96395.94;6308737;28;20032;-62
2022/09/02 02:29:27;;;;;;;18.90;16.00;;;;;;;19.20;31.80;96392.28;6317263;28;20070;-63
2022/09/02 02:32:31;;;;;;;20.05;13.90;;;;;;;19.28;31.50;96386.97;6318870;28;20421;-63
2022/09/02 02:35:35;;;;;;;19.55;14.30;;;;;;;19.17;31.94;96391.78;6318183;28;20126;-63
2022/09/02 02:38:38;;;;;;;16.60;12.02;;;;;;;19.10;31.74;96388.94;6319937;28;20498;-62
2022/09/02 02:41:42;;;;;;;21.85;15.07;;;;;;;19.26;31.44;96388.97;6317429;28;20058;-62
2022/09/02 02:44:46;;;;;;;23.98;17.02;;;;;;;19.44;30.93;96379.97;6318145;28;20044;-63
2022/09/02 02:47:52;;;;;;;23.70;17.08;;;;;;;19.44;31.11;96390.63;6319760;28;20039;-62
2022/09/02 02:50:56;;;;;;;26.30;14.73;;;;;;;19.37;31.51;96389.66;6319097;28;20173;-62
2022/09/02 02:54:02;;;;;;;19.70;12.98;;;;;;;19.39;31.27;96384.94;6318858;28;20052;-62
2022/09/02 02:57:08;;;;;;;20.73;14.30;;;;;;;19.59;31.16;96394.31;6315351;28;20204;-62
2022/09/02 03:00:12;;;;;;;18.15;13.70;;;;;;;19.76;30.48;96380.97;6318155;28;20036;-63
2022/09/02 03:03:18;;;;;;;21.95;10.77;;;;;;;19.77;30.69;96390.66;6314322;28;20044;-63
2022/09/02 03:06:21;;;;;;;16.23;10.27;;;;;;;19.63;31.00;96390.31;6316155;28;20040;-63
2022/09/02 03:09:25;;;;;;;17.05;11.45;;;;;;;19.60;31.11;96385.31;6317669;28;20035;-63
2022/09/02 03:12:27;;;;;;;17.33;12.18;;;;;;;19.76;30.75;96383.63;6312389;28;20045;-62
2022/09/02 03:15:33;;;;;;;16.65;12.65;;;;;;;19.90;30.85;96389.16;6309616;28;20035;-62
2022/09/02 03:18:35;;;;;;;14.35;10.50;;;;;;;19.95;30.77;96393.97;6318423;28;20450;-62
2022/09/02 03:21:37;;;;;;;15.57;11.00;;;;;;;19.96;30.83;96395.66;6316542;28;20511;-63
2022/09/02 03:24:39;;;;;;;16.33;11.60;;;;;;;20.01;31.04;96401.28;6313989;28;20052;-62
2022/09/02 03:27:44;;;;;;;20.08;12.00;;;;;;;20.22;30.93;96389.25;6311304;28;20560;-63
2022/09/02 03:30:45;;;;;;;14.07;10.02;;;;;;;20.36;30.77;96386.69;6317873;28;20074;-63
2022/09/02 03:33:48;;;;;;;19.40;10.05;;;;;;;20.41;30.65;96394.19;6309227;28;20051;-63
2022/09/02 03:36:49;;;;;;;15.43;9.35;;;;;;;20.45;30.69;96386.66;6316938;28;20475;-63
2022/09/02 03:39:53;;;;;;;13.40;9.38;;;;;;;20.57;30.31;96382.63;6316085;28;20044;-63
2022/09/02 03:42:55;;;;;;;13.27;7.80;;;;;;;21.04;29.14;96374.53;6316534;28;20052;-63
2022/09/02 03:45:57;;;;;;;17.73;9.63;;;;;;;21.12;29.01;96383.50;6317140;28;20052;-63
2022/09/02 03:48:58;;;;;;;16.08;9.35;;;;;;;21.20;28.90;96378.94;6316071;28;20074;-63
2022/09/02 03:52:00;;;;;;;17.58;10.20;;;;;;;21.19;28.71;96376.44;6316507;28;20074;-62
2022/09/02 03:55:05;;;;;;;16.23;10.40;;;;;;;21.24;28.82;96379.41;6317381;28;20048;-62
2022/09/02 03:58:06;;;;;;;15.25;10.10;;;;;;;21.33;28.75;96358.78;6315316;28;20046;-62
2022/09/02 04:01:17;;;;;;;18.67;10.82;;;;;;;21.55;28.03;96373.19;6315856;28;20092;-62
2022/09/02 04:04:19;;;;;;;19.63;12.10;;;;;;;21.66;27.88;96383.47;6316266;28;20040;-63
2022/09/02 04:07:22;;;;;;;18.88;10.63;;;;;;;21.74;27.96;96370.00;6315610;28;20048;-62
2022/09/02 04:10:29;;;;;;;16.98;10.48;;;;;;;21.90;27.63;96379.72;6318170;28;20055;-63
2022/09/02 04:13:34;;;;;;;18.73;12.00;;;;;;;22.00;27.58;96374.13;6317084;28;20063;-63
2022/09/02 04:16:35;;;;;;;21.23;12.90;;;;;;;21.98;27.79;96382.31;6317588;28;20039;-63
2022/09/02 04:19:40;;;;;;;18.55;12.10;;;;;;;22.09;27.85;96379.19;6317516;28;20040;-63
2022/09/02 04:22:41;;;;;;;20.08;12.77;;;;;;;22.13;27.95;96385.00;6317460;28;20510;-64
2022/09/02 04:25:43;;;;;;;20.63;13.10;;;;;;;22.37;27.62;96376.75;6316060;28;20139;-63
2022/09/02 04:28:46;;;;;;;20.88;13.48;;;;;;;22.47;27.59;96392.53;6314338;28;20082;-63
2022/09/02 04:31:50;;;;;;;15.60;11.35;;;;;;;22.47;27.76;96386.34;6314243;28;20044;-63
2022/09/02 04:34:52;;;;;;;22.70;14.10;;;;;;;22.63;27.55;96386.97;6315277;28;20051;-63
2022/09/02 04:37:53;;;;;;;23.42;14.80;;;;;;;22.95;27.00;96373.31;6320736;28;20040;-63
2022/09/02 04:40:58;;;;;;;21.52;16.20;;;;;;;23.11;27.00;96370.44;6321626;28;20040;-63
2022/09/02 04:43:59;;;;;;;20.73;15.93;;;;;;;23.19;26.87;96358.75;6319803;28;20066;-63
2022/09/02 04:47:03;;;;;;;23.27;16.42;;;;;;;23.49;26.30;96371.00;6317663;28;20577;-62
2022/09/02 04:50:06;;;;;;;24.63;17.30;;;;;;;23.81;26.33;96368.00;6321300;28;20507;-63
2022/09/02 04:53:08;;;;;;;23.17;17.15;;;;;;;24.04;25.88;96373.97;6321259;28;20132;-62
2022/09/02 04:56:15;;;;;;;25.67;18.38;;;;;;;24.29;25.31;96370.81;6320347;28;20051;-62
2022/09/02 04:59:20;;;;;;;28.17;19.90;;;;;;;24.40;25.45;96373.81;6319853;28;20048;-62
2022/09/02 05:02:22;;;;;;;25.02;19.05;;;;;;;24.43;24.93;96351.09;6315649;28;20418;-63
2022/09/02 05:05:23;;;;;;;29.95;20.73;;;;;;;24.91;24.32;96363.69;6321013;28;20134;-63
2022/09/02 05:08:29;;;;;;;28.92;20.35;;;;;;;25.13;23.70;96378.66;6321232;28;20495;-62
2022/09/02 05:11:32;;;;;;;27.85;19.83;;;;;;;25.13;24.22;96367.06;6320801;28;20062;-62
2022/09/02 05:14:33;;;;;;;;;;;;;;;25.34;23.83;96364.25;6319411;27;20050;-63
2022/09/02 05:17:38;;;;;;;32.28;24.73;;;;;;;25.52;23.52;96361.78;6319947;28;20009;-62
2022/09/02 05:20:42;;;;;;;29.65;24.50;;;;;;;25.97;23.08;96359.31;6321136;28;20537;-62
2022/09/02 05:23:46;;;;;;;31.13;25.20;;;;;;;29.04;20.01;96369.81;6319786;28;20048;-62
2022/09/02 05:26:50;;;;;;;31.02;23.77;;;;;;;32.58;17.00;96370.81;6319926;28;20039;-62
2022/09/02 05:29:58;;;;;;;27.45;22.58;;;;;;;35.02;14.86;96381.53;6320261;28;20047;-62
2022/09/02 05:33:00;;;;;;;26.17;21.77;;;;;;;37.06;13.51;96375.34;6320456;28;20048;-62
2022/09/02 05:36:01;;;;;;;24.80;21.85;;;;;;;38.46;11.73;96384.34;6319714;28;20150;-63
2022/09/02 05:39:04;;;;;;;25.27;21.10;;;;;;;40.12;10.96;96387.19;6320255;28;20047;-63
2022/09/02 05:42:10;;;;;;;25.98;20.65;;;;;;;40.18;10.61;96383.22;6316486;28;20044;-63
2022/09/02 05:45:13;;;;;;;28.85;22.52;;;;;;;40.60;10.50;96375.88;6319310;28;20063;-63
2022/09/02 05:51:51;;;;;;;20.45;16.20;;;;;;;43.14;9.29;96379.66;6319980;28;20048;-63
2022/09/02 05:54:53;;;;;;;19.55;14.15;;;;;;;43.48;9.13;96367.84;6319785;28;20039;-63
2022/09/02 05:58:02;;;;;;;17.77;15.40;;;;;;;44.25;8.24;96373.75;6320334;28;20040;-64
2022/09/02 06:01:10;;;;;;;21.02;17.90;;;;;;;43.59;8.60;96360.06;6319350;28;20140;-64
2022/09/02 06:04:15;;;;;;;20.50;18.30;;;;;;;40.69;9.83;96350.38;6313005;28;20075;-64
2022/09/02 06:07:20;;;;;;;22.75;20.45;;;;;;;39.15;11.10;96341.75;6318519;28;20520;-64
2022/09/02 06:10:24;;;;;;;21.08;18.95;;;;;;;39.44;11.01;96354.63;6317074;28;20039;-63
2022/09/02 06:13:30;;;;;;;27.02;18.77;;;;;;;38.01;11.32;96328.69;6318525;28;20032;-62
2022/09/02 06:16:35;;;;;;;25.60;20.52;;;;;;;38.33;11.58;96320.69;6317587;28;20047;-63
2022/09/02 06:19:39;;;;;;;23.70;20.67;;;;;;;40.79;10.42;96344.66;6317518;28;20065;-63
2022/09/02 06:22:45;;;;;;;20.92;18.27;;;;;;;39.85;10.72;96331.97;6318549;28;20058;-62
2022/09/02 06:25:49;;;;;;;21.08;18.25;;;;;;;38.11;11.54;96323.09;6319057;28;20055;-62
2022/09/02 06:28:56;;;;;;;22.98;20.58;;;;;;;37.36;12.28;96318.69;6315053;28;20036;-62
2022/09/02 06:32:02;;;;;;;22.40;18.17;;;;;;;38.25;11.62;96318.56;6314613;28;20134;-63
2022/09/02 06:35:07;;;;;;;24.30;18.10;;;;;;;39.63;10.54;96308.59;6317097;28;20052;-62
2022/09/02 06:38:12;;;;;;;19.02;16.45;;;;;;;39.97;10.55;96307.53;6316666;28;20040;-63
2022/09/02 06:41:18;;;;;;;23.50;18.67;;;;;;;39.50;10.82;96309.38;6315963;28;20048;-62
2022/09/02 06:44:20;;;;;;;21.70;18.27;;;;;;;39.65;10.41;96306.38;6316433;28;20396;-62
2022/09/02 06:47:22;;;;;;;18.55;15.57;;;;;;;38.85;10.86;96294.25;6313667;28;20563;-63
2022/09/02 06:50:25;;;;;;;17.00;15.20;;;;;;;38.49;10.75;96295.81;6312376;28;20177;-63
2022/09/02 06:53:33;;;;;;;17.35;15.38;;;;;;;39.02;9.89;96288.28;6318402;28;20419;-62
2022/09/02 06:56:35;;;;;;;17.00;14.50;;;;;;;40.32;9.43;96297.84;6318276;28;20048;-62
2022/09/02 06:59:37;;;;;;;13.48;11.93;;;;;;;39.84;9.32;96297.28;6318920;28;20043;-63
2022/09/02 07:05:08;;;;;;;14.77;13.15;;;;;;;39.78;9.20;96287.50;6313161;28;20047;-63
2022/09/02 07:06:09;;;;;;;12.02;10.80;;;;;;;39.82;8.88;96283.81;6315339;28;20548;-63
2022/09/02 07:09:20;;;;;;;12.98;10.60;;;;;;;39.29;9.31;96273.88;6318365;28;20044;-63
2022/09/02 07:12:26;;;;;;;14.70;12.80;;;;;;;37.75;10.35;96260.22;6317547;28;20040;-63
2022/09/02 07:15:29;;;;;;;13.35;11.38;;;;;;;37.13;10.51;96253.53;6317465;28;20510;-63
2022/09/02 07:18:31;;;;;;;12.93;11.52;;;;;;;36.56;11.10;96255.75;6318243;28;20108;-62
2022/09/02 07:21:35;;;;;;;14.45;11.85;;;;;;;37.31;10.86;96247.38;6317490;28;20071;-63
2022/09/02 07:24:36;;;;;;;15.85;11.25;;;;;;;39.85;9.10;96249.34;6317012;28;20875;-63
2022/09/02 07:27:38;;;;;;;14.60;11.15;;;;;;;42.21;7.98;96247.78;6317469;28;20430;-63
2022/09/02 07:30:42;;;;;;;;;;;;;;;44.70;6.64;96265.09;6316808;28;20044;-64
2022/09/02 07:33:45;;;;;;;11.55;9.05;;;;;;;44.97;5.85;96259.09;6311532;28;19920;-64
2022/09/02 07:36:47;;;;;;;9.27;7.90;;;;;;;44.76;6.20;96244.34;6317362;28;20135;-63
2022/09/02 07:39:49;;;;;;;11.85;8.35;;;;;;;42.29;7.09;96241.47;6315952;28;20510;-63
2022/09/02 07:42:50;;;;;;;8.68;7.45;;;;;;;40.92;7.76;96227.16;6316942;28;20047;-63
2022/09/02 07:45:56;;;;;;;9.25;7.43;;;;;;;40.14;8.27;96236.13;6316635;28;20048;-63
2022/09/02 07:49:00;;;;;;;9.13;6.50;;;;;;;39.24;8.55;96210.66;6319327;28;20135;-62
2022/09/02 07:52:02;;;;;;;8.90;7.85;;;;;;;39.83;8.38;96218.53;6314657;28;20523;-63
2022/09/02 07:55:04;;;;;;;8.52;7.70;;;;;;;40.31;8.32;96209.91;6317232;28;20051;-63
2022/09/02 07:58:15;;;;;;;9.45;6.80;;;;;;;41.63;7.95;96208.13;6317755;28;20039;-63
2022/09/02 08:01:21;;;;;;;6.30;4.78;;;;;;;42.59;7.32;96220.47;6317589;28;20043;-63
2022/09/02 08:04:23;;;;;;;10.68;5.45;;;;;;;41.80;7.60;96208.22;6313176;28;20040;-62
2022/09/02 08:07:25;;;;;;;7.60;4.80;;;;;;;40.63;8.14;96208.22;6313786;28;20566;-63
2022/09/02 08:10:31;;;;;;;8.27;5.63;;;;;;;39.53;8.53;96217.91;6312436;28;20419;-63
2022/09/02 08:13:36;;;;;;;7.70;4.88;;;;;;;38.70;9.24;96214.72;6300878;28;20052;-63
2022/09/02 08:16:43;;;;;;;7.47;4.95;;;;;;;38.21;9.92;96218.59;6300560;28;20059;-63
2022/09/02 08:19:47;;;;;;;6.10;4.88;;;;;;;37.84;9.42;96200.81;6317347;28;20048;-63
2022/09/02 08:22:50;;;;;;;8.57;4.53;;;;;;;37.65;10.05;96199.91;6314179;28;20138;-73
2022/09/02 08:25:52;;;;;;;6.78;4.13;;;;;;;39.03;9.11;96201.06;6315141;28;20048;-62
2022/09/02 08:28:56;;;;;;;7.60;4.40;;;;;;;40.35;8.41;96202.69;6307636;28;20044;-62
2022/09/02 08:32:01;;;;;;;6.97;4.07;;;;;;;41.91;7.58;96204.06;6317821;28;20135;-69
2022/09/02 08:35:04;;;;;;;7.38;4.90;;;;;;;43.17;7.21;96210.97;6305064;28;20049;-62
2022/09/02 08:38:08;;;;;;;4.75;4.25;;;;;;;44.46;6.41;96216.59;6317769;28;20135;-62
2022/09/02 08:41:20;;;;;;;4.97;3.55;;;;;;;44.74;6.49;96235.56;6316391;28;20047;-62
2022/09/02 08:44:23;;;;;;;6.72;5.60;;;;;;;44.89;6.19;96218.31;6316820;28;20050;-66
2022/09/02 08:47:30;;;;;;;7.85;5.50;;;;;;;45.34;5.88;96205.75;6314724;28;20033;-61
2022/09/02 08:50:36;;;;;;;6.88;4.65;;;;;;;45.15;6.29;96214.56;6293598;28;20045;-60
2022/09/02 08:53:51;;;;;;;8.60;6.55;;;;;;;46.06;6.03;96226.66;6314992;28;20043;-61
2022/09/02 08:56:56;;;;;;;13.90;12.20;;;;;;;45.34;6.26;96217.66;6315269;28;20052;-61
2022/09/02 09:00:01;;;;;;;14.13;11.55;;;;;;;44.04;7.02;96221.97;6313586;28;20395;-64
2022/09/02 09:03:36;;;;;;;14.93;12.23;;;;;;;42.10;7.57;96211.31;6313459;28;20044;-61
2022/09/02 09:07:01;;;;;;;15.90;13.57;;;;;;;41.52;8.36;96213.06;6290047;28;20129;-62
2022/09/02 09:10:03;;;;;;;14.38;12.45;;;;;;;42.92;7.66;96206.19;6304031;28;20053;-62
2022/09/02 09:13:49;;;;;;;19.33;13.77;;;;;;;43.83;7.18;96209.94;6315706;28;20516;-61
2022/09/02 09:17:13;;;;;;;15.70;12.73;;;;;;;43.66;7.19;96210.81;6318029;28;20044;-61
2022/09/02 09:20:21;;;;;;;15.55;12.65;;;;;;;43.11;7.31;96212.25;6317420;28;20514;-61
2022/09/02 09:23:32;;;;;;;13.90;9.13;;;;;;;43.61;7.23;96203.47;6318377;28;20044;-70
2022/09/02 09:26:39;;;;;;;9.07;6.38;;;;;;;43.19;6.96;96213.41;6299804;28;20050;-71
2022/09/02 09:29:41;;;;;;;9.45;5.80;;;;;;;42.61;7.41;96207.13;6321607;28;20078;-62
2022/09/02 09:32:53;;;;;;;7.60;4.97;;;;;;;42.20;7.49;96194.44;6318386;28;20039;-63
2022/09/02 09:35:57;;;;;;;10.85;6.03;;;;;;;42.90;7.62;96200.19;6309787;28;20128;-72
2022/09/02 09:39:28;;;;;;;7.65;5.82;;;;;;;43.47;7.49;96203.63;6319758;28;20039;-63
2022/09/02 09:42:36;;;;;;;3.83;3.45;;;;;;;44.18;6.58;96205.13;6311570;28;20044;-62
2022/09/02 09:45:41;;;;;;;5.00;2.67;;;;;;;44.08;6.15;96209.09;6320013;28;20066;-62
2022/09/02 09:48:50;;;;;;;6.88;2.88;;;;;;;44.73;5.92;96203.38;6321527;28;20594;-64
2022/09/02 09:51:55;;;;;;;5.07;2.53;;;;;;;45.10;5.66;96212.78;6320179;28;20430;-62
2022/09/02 09:55:12;;;;;;;5.43;2.20;;;;;;;45.07;5.57;96207.09;6321433;28;20379;-62
2022/09/02 09:58:15;;;;;;;3.92;2.67;;;;;;;44.35;6.13;96204.25;6321349;28;20522;-61
2022/09/02 10:01:29;;;;;;;2.97;2.55;;;;;;;42.65;6.47;96201.75;6321347;28;20048;-61
2022/09/02 10:04:35;;;;;;;3.78;2.60;;;;;;;41.50;7.29;96194.06;6320307;28;20048;-62
2022/09/02 10:07:51;;;;;;;6.22;2.55;;;;;;;40.16;7.86;96206.31;6319213;28;20101;-62
2022/09/02 10:11:05;;;;;;;3.90;2.22;;;;;;;38.74;8.64;96198.44;6321614;28;20691;-62
2022/09/02 10:14:11;;;;;;;3.05;2.53;;;;;;;39.04;8.69;96194.47;6320465;28;20040;-62
2022/09/02 10:17:56;;;;;;;5.85;4.63;;;;;;;40.24;8.33;96201.25;6322280;28;20109;-62
2022/09/02 10:21:03;;;;;;;10.32;6.90;;;;;;;39.46;8.81;96203.72;6320430;28;20048;-62
2022/09/02 10:24:37;;;;;;;7.20;5.82;;;;;;;38.41;9.33;96188.13;6321271;28;20048;-62
2022/09/02 10:27:57;;;;;;;6.07;3.67;;;;;;;38.35;9.62;96214.00;6303552;28;20059;-62
2022/09/02 10:31:09;;;;;;;5.15;2.42;;;;;;;40.06;9.44;96220.31;6319953;28;20430;-63
2022/09/02 10:34:38;;;;;;;7.65;2.55;;;;;;;41.11;9.20;96224.25;6319506;28;20051;-62
2022/09/02 10:38:04;;;;;;;4.25;2.30;;;;;;;41.62;9.06;96231.34;6320883;28;20531;-63
2022/09/02 10:41:14;;;;;;;4.75;2.38;;;;;;;41.76;9.02;96222.97;6314633;28;20047;-62
2022/09/02 10:45:12;;;;;;;7.07;2.15;;;;;;;42.33;8.80;96232.25;6296894;28;20051;-61
2022/09/02 10:48:50;;;;;;;7.32;2.67;;;;;;;42.34;8.87;96239.41;6285756;28;20052;-61
2022/09/02 10:52:02;;;;;;;5.78;2.67;;;;;;;41.75;8.82;96251.72;6320406;28;20556;-62
2022/09/02 10:55:27;;;;;;;6.07;2.45;;;;;;;40.99;9.21;96244.06;6319621;28;20059;-62
2022/09/02 10:58:44;;;;;;;4.40;2.22;;;;;;;41.38;9.04;96257.28;6294263;28;20055;-62
2022/09/02 11:02:05;;;;;;;4.78;3.00;;;;;;;40.82;8.98;96230.94;6308142;28;20059;-61
2022/09/02 11:05:22;;;;;;;4.13;2.38;;;;;;;40.84;9.02;96242.47;6319219;28;20570;-62
2022/09/02 11:08:38;;;;;;;5.28;2.90;;;;;;;40.72;9.18;96250.47;6319637;28;20134;-62
2022/09/02 11:11:51;;;;;;;3.72;2.35;;;;;;;39.96;9.34;96253.56;6319936;28;20040;-64
2022/09/02 11:15:15;;;;;;;5.47;2.78;;;;;;;39.72;9.89;96251.75;6319995;28;20048;-62
2022/09/02 11:18:43;;;;;;;4.25;2.45;;;;;;;39.27;10.39;96256.84;6319374;28;20063;-62
2022/09/02 11:21:57;;;;;;;3.58;1.90;;;;;;;39.14;10.75;96263.06;6288280;28;20044;-62
2022/09/02 11:25:04;;;;;;;2.85;1.80;;;;;;;39.14;10.78;96257.56;6318993;28;20058;-63
2022/09/02 11:28:23;;;;;;;4.75;2.33;;;;;;;38.75;11.31;96255.06;6319887;28;20047;-63
2022/09/02 11:31:39;;;;;;;4.55;1.85;;;;;;;38.47;11.34;96271.34;6319299;28;20217;-62
2022/09/02 11:34:47;;;;;;;2.55;1.75;;;;;;;38.34;11.41;96267.34;6316617;28;20051;-62
2022/09/02 11:38:00;;;;;;;4.47;2.25;;;;;;;38.74;11.73;96268.00;6319415;28;20043;-62
2022/09/02 11:41:07;;;;;;;3.65;2.13;;;;;;;38.51;11.98;96260.59;6305476;28;20043;-62
2022/09/02 11:44:26;;;;;;;5.18;2.00;;;;;;;38.27;12.44;96277.03;6318702;28;20036;-62
2022/09/02 11:48:02;;;;;;;3.03;2.67;;;;;;;38.37;12.38;96294.25;6319397;28;20048;-62
2022/09/02 11:51:24;;;;;;;6.05;2.00;;;;;;;38.35;13.03;96290.97;6318960;28;20051;-62
2022/09/02 11:54:30;;;;;;;11.68;1.90;;;;;;;38.09;13.39;96308.84;6318904;28;20040;-62
2022/09/02 11:57:34;;;;;;;5.68;2.00;;;;;;;37.63;13.75;96318.25;6318924;28;20051;-63
2022/09/02 12:00:57;;;;;;;5.50;2.40;;;;;;;37.35;14.62;96283.31;6319033;28;20431;-62
2022/09/02 12:04:10;;;;;;;4.15;2.25;;;;;;;37.00;14.75;96310.63;6318342;28;20052;-63
2022/09/02 12:07:12;;;;;;;7.82;2.35;;;;;;;36.37;15.40;96307.53;6318168;28;20086;-63
2022/09/02 12:10:44;;;;;;;9.82;2.85;;;;;;;36.14;15.81;96309.78;6318983;28;20044;-63
2022/09/02 12:13:47;;;;;;;7.75;2.60;;;;;;;35.69;16.24;96330.59;6318554;28;20040;-63
2022/09/02 12:17:07;;;;;;;6.55;2.30;;;;;;;34.73;17.08;96299.13;6315632;28;20036;-61
2022/09/02 12:20:28;;;;;;;6.55;2.78;;;;;;;34.51;17.47;96336.69;6317771;28;20514;-63
2022/09/02 12:23:54;;;;;;;5.63;3.00;;;;;;;34.77;17.05;96335.78;6318881;28;20051;-62
2022/09/02 12:26:56;;;;;;;6.80;2.95;;;;;;;34.89;17.18;96332.81;6317838;28;20435;-62
2022/09/02 12:29:58;;;;;;;5.57;2.67;;;;;;;34.87;17.23;96329.53;6318716;28;20800;-62
2022/09/02 12:33:13;;;;;;;3.15;2.70;;;;;;;34.89;17.12;96341.03;6318931;28;20118;-61
2022/09/02 12:36:37;;;;;;;3.72;2.42;;;;;;;34.76;17.48;96345.06;6315482;28;20423;-64
2022/09/02 12:39:39;;;;;;;4.85;2.50;;;;;;;34.85;17.71;96354.41;6316922;28;20201;-64
2022/09/02 12:42:41;;;;;;;4.95;2.75;;;;;;;34.64;17.93;96347.19;6318074;28;20042;-63
2022/09/02 12:45:52;;;;;;;6.80;2.45;;;;;;;34.30;18.14;96357.63;6317780;28;20051;-63
2022/09/02 12:49:14;;;;;;;5.13;2.63;;;;;;;34.20;18.26;96358.38;6319026;28;20498;-62
2022/09/02 12:52:33;;;;;;;8.25;2.60;;;;;;;34.17;18.30;96364.38;6317643;28;20533;-62
2022/09/02 12:55:39;;;;;;;5.97;2.38;;;;;;;34.10;18.28;96374.69;6319728;28;20043;-63
2022/09/02 12:58:47;;;;;;;5.80;2.42;;;;;;;33.98;18.67;96367.47;6323191;28;20062;-63
2022/09/02 13:02:15;;;;;;;6.63;2.88;;;;;;;33.84;18.74;96377.19;6323318;28;20044;-62
2022/09/02 13:05:18;;;;;;;7.15;2.92;;;;;;;33.67;18.68;96371.03;6319616;28;20076;-62
2022/09/02 13:08:41;;;;;;;5.70;2.70;;;;;;;33.40;18.95;96366.34;6323159;28;20585;-64
2022/09/02 13:11:48;;;;;;;;;;;;;;;33.54;18.76;96386.69;6322923;28;20097;-64
2022/09/02 13:15:21;;;;;;;4.95;2.78;;;;;;;32.88;19.65;96394.91;6323055;28;19931;-64
2022/09/02 13:18:58;;;;;;;5.57;2.25;;;;;;;32.58;20.25;96380.88;6306377;28;20048;-63
2022/09/02 13:22:23;;;;;;;4.75;3.15;;;;;;;32.32;20.91;96391.34;6302291;28;20060;-62
2022/09/02 13:25:50;;;;;;;2.83;2.50;;;;;;;31.91;21.04;96403.50;6322668;28;20123;-63
2022/09/02 13:29:06;;;;;;;4.32;2.85;;;;;;;31.65;21.49;96394.88;6322433;28;20040;-63
2022/09/02 13:32:21;;;;;;;7.00;2.83;;;;;;;31.37;21.96;96392.19;6322527;28;20055;-63
2022/09/02 13:35:26;;;;;;;3.35;3.03;;;;;;;31.13;22.63;96403.09;6322435;28;20059;-63
2022/09/02 13:38:33;;;;;;;5.88;3.25;;;;;;;30.95;22.79;96400.56;6318976;28;20487;-62
2022/09/02 13:41:35;;;;;;;5.32;2.38;;;;;;;30.85;22.90;96393.81;6319823;28;20190;-62
2022/09/02 13:44:36;;;;;;;3.20;2.10;;;;;;;30.77;23.25;96413.19;6321259;28;20044;-62
2022/09/02 13:47:45;;;;;;;5.43;2.40;;;;;;;30.60;23.54;96414.97;6320978;28;20137;-63
2022/09/02 13:50:54;;;;;;;4.55;2.58;;;;;;;30.34;24.17;96421.72;6319775;28;20123;-62
2022/09/02 13:53:58;;;;;;;4.80;3.03;;;;;;;30.23;24.67;96428.78;6322434;28;20048;-62
2022/09/02 13:57:04;;;;;;;5.72;2.38;;;;;;;30.08;24.79;96433.81;6320239;28;20478;-62
2022/09/02 14:00:07;;;;;;;3.20;2.50;;;;;;;29.97;25.22;96436.25;6320578;28;20044;-62
2022/09/02 14:03:21;;;;;;;3.83;2.60;;;;;;;29.73;25.42;96440.00;6321158;28;20044;-62
2022/09/02 14:06:27;;;;;;;6.22;4.07;;;;;;;29.41;25.97;96444.78;6320807;28;20070;-62
2022/09/02 14:09:31;;;;;;;3.80;3.03;;;;;;;29.38;26.23;96440.63;6313323;28;20036;-62
2022/09/02 14:12:38;;;;;;;3.88;2.60;;;;;;;29.23;26.17;96448.34;6314878;28;20484;-62
2022/09/02 14:15:39;;;;;;;3.55;3.05;;;;;;;29.17;26.63;96450.09;6318452;28;20036;-62
2022/09/02 14:19:04;;;;;;;5.28;3.08;;;;;;;29.00;26.86;96460.69;6317663;28;20044;-63
2022/09/02 14:22:27;;;;;;;3.28;2.28;;;;;;;28.79;27.52;96453.00;6307893;28;20122;-63
2022/09/02 14:25:38;;;;;;;3.83;2.50;;;;;;;28.63;27.74;96482.31;6319336;28;20040;-63
2022/09/02 14:28:50;;;;;;;3.58;2.45;;;;;;;28.51;28.01;96484.09;6319044;28;20122;-62
2022/09/02 14:32:29;;;;;;;5.18;3.08;;;;;;;28.45;28.31;96479.59;6300740;28;20538;-64
2022/09/02 14:35:30;;;;;;;6.30;2.78;;;;;;;28.28;28.71;96483.84;6310556;28;20044;-62
2022/09/02 14:38:47;;;;;;;6.50;3.08;;;;;;;28.26;28.89;96472.44;6319009;28;20036;-62
2022/09/02 14:41:55;;;;;;;4.28;3.17;;;;;;;28.11;29.11;96472.75;6315201;28;20052;-61
2022/09/02 14:44:59;;;;;;;3.25;2.28;;;;;;;28.02;29.55;96491.09;6314398;28;20036;-67